Time;durP1;ratioP1;P1;durP2;ratioP2;P2;SDS_P1;SDS_P2;PMS_P1;PMS_P2;Temp;Humidity;BMP_temperature;BMP_pressure;BME280_temperature;BME280_humidity;BME280_pressure;Samples;Min_cycle;Max_cycle;Signal;HPM_P1;HPM_P2
2021/07/23 00:02:29;;;;;;;8.43;3.72;;;;;;;16.46;72.83;99604.34;1747123;82;21200;-87
2021/07/23 00:05:35;;;;;;;12.68;3.92;;;;;;;16.46;72.51;99602.13;1804142;79;21295;-88
2021/07/23 00:08:40;;;;;;;17.02;4.05;;;;;;;16.49;72.18;99605.27;1804384;79;21133;-88
2021/07/23 00:11:45;;;;;;;12.70;4.25;;;;;;;16.52;72.01;99602.05;1803249;79;21327;-79
2021/07/23 00:14:51;;;;;;;10.40;4.20;;;;;;;16.53;71.91;99607.03;1803842;79;21315;-78
2021/07/23 00:17:58;;;;;;;10.70;3.87;;;;;;;16.53;72.11;99607.88;1803845;79;21197;-89
2021/07/23 00:21:04;;;;;;;10.32;3.95;;;;;;;16.49;72.70;99612.17;1803378;79;21303;-78
2021/07/23 00:24:10;;;;;;;16.00;4.62;;;;;;;16.41;73.15;99618.00;1802707;79;21339;-88
2021/07/23 00:27:17;;;;;;;10.10;4.25;;;;;;;16.35;73.63;99616.17;1803824;79;21157;-78
2021/07/23 00:30:23;;;;;;;11.80;4.65;;;;;;;16.28;73.93;99615.42;1802234;79;21327;-88
2021/07/23 00:33:28;;;;;;;12.88;4.45;;;;;;;16.22;74.05;99618.54;1802367;79;21275;-88
2021/07/23 00:36:35;;;;;;;9.98;4.62;;;;;;;16.19;73.83;99619.56;1803253;79;21688;-89
2021/07/23 00:39:41;;;;;;;8.00;4.10;;;;;;;16.19;73.65;99619.56;1803459;79;21314;-78
2021/07/23 00:42:50;;;;;;;11.57;4.45;;;;;;;16.21;73.56;99616.02;1803975;79;21200;-88
2021/07/23 00:45:56;;;;;;;6.92;4.08;;;;;;;16.20;73.44;99621.23;1803985;79;21304;-79
2021/07/23 00:49:01;;;;;;;9.40;4.40;;;;;;;16.19;73.46;99620.40;1803883;79;21193;-78
2021/07/23 00:52:08;;;;;;;8.78;4.55;;;;;;;16.19;73.49;99625.08;1803896;79;21268;-78
2021/07/23 00:55:14;;;;;;;11.68;4.10;;;;;;;16.17;73.45;99620.31;1803683;79;21308;-78
2021/07/23 00:58:20;;;;;;;8.95;4.25;;;;;;;16.17;73.51;99623.06;1803795;79;21208;-78
2021/07/23 01:01:25;;;;;;;8.28;3.98;;;;;;;16.14;73.64;99626.27;1802897;79;21212;-78
2021/07/23 01:04:30;;;;;;;13.50;4.12;;;;;;;16.13;73.71;99630.11;1802873;79;21295;-89
2021/07/23 01:07:35;;;;;;;8.68;4.08;;;;;;;16.09;73.66;99619.55;1802983;79;21828;-79
2021/07/23 01:10:45;;;;;;;10.58;4.25;;;;;;;16.06;73.77;99625.52;1786042;79;21339;-79
2021/07/23 01:13:52;;;;;;;11.85;4.30;;;;;;;16.05;73.87;99627.98;1786509;79;21228;-89
2021/07/23 01:16:59;;;;;;;14.23;4.50;;;;;;;16.01;74.06;99622.61;1802429;79;21327;-89
2021/07/23 01:20:13;;;;;;;17.10;4.62;;;;;;;15.97;74.30;99622.75;1803891;79;21338;-87
2021/07/23 01:23:20;;;;;;;10.88;4.15;;;;;;;15.93;74.57;99624.81;1803435;79;21284;-78
2021/07/23 01:26:31;;;;;;;10.35;4.50;;;;;;;15.88;74.89;99626.87;1802644;79;21291;-79
2021/07/23 01:29:38;;;;;;;12.95;4.42;;;;;;;15.82;75.22;99629.17;1803761;79;21300;-78
2021/07/23 01:32:44;;;;;;;13.38;4.75;;;;;;;15.77;75.46;99631.77;1803842;79;21276;-88
2021/07/23 01:35:50;;;;;;;14.23;4.62;;;;;;;15.75;75.58;99631.13;1803908;79;21311;-88
2021/07/23 01:38:58;;;;;;;8.48;4.40;;;;;;;15.73;75.58;99633.28;1803940;79;21295;-78
2021/07/23 01:42:05;;;;;;;17.02;4.55;;;;;;;15.72;75.72;99635.73;1803655;79;21892;-79
2021/07/23 01:45:12;;;;;;;8.50;3.90;;;;;;;15.70;75.92;99637.86;1803854;79;21808;-79
2021/07/23 01:48:34;;;;;;;7.97;3.80;;;;;;;15.68;76.05;99638.63;1803841;79;21859;-78
2021/07/23 01:51:44;;;;;;;;;;;;;;;15.64;76.16;99636.86;1805239;79;21184;-79
2021/07/23 01:54:54;;;;;;;13.45;4.35;;;;;;;15.64;76.16;99638.77;1799633;79;20252;-78
2021/07/23 01:58:01;;;;;;;12.33;4.10;;;;;;;15.59;76.19;99637.50;1804020;79;21213;-79
2021/07/23 02:01:05;;;;;;;14.13;4.10;;;;;;;15.54;76.18;99638.71;1803002;79;21315;-88
2021/07/23 02:04:13;;;;;;;13.15;4.20;;;;;;;15.53;76.27;99643.08;1803670;79;21295;-88
2021/07/23 02:07:20;;;;;;;10.20;4.00;;;;;;;15.51;76.31;99642.45;1777716;81;21167;-78
2021/07/23 02:10:25;;;;;;;12.33;4.10;;;;;;;15.50;76.43;99645.73;1777352;81;21848;-78
2021/07/23 02:13:31;;;;;;;10.28;3.92;;;;;;;15.47;76.58;99646.17;1777621;81;21209;-79
2021/07/23 02:16:38;;;;;;;10.38;4.70;;;;;;;15.46;76.57;99651.92;1776573;81;21854;-88
2021/07/23 02:19:44;;;;;;;16.10;3.55;;;;;;;15.42;76.52;99659.78;1777522;81;21346;-88
2021/07/23 02:22:52;;;;;;;9.40;3.40;;;;;;;15.43;76.70;99658.74;1777405;81;21201;-79
2021/07/23 02:26:00;;;;;;;14.80;4.20;;;;;;;15.45;76.88;99655.22;1776314;81;21209;-78
2021/07/23 02:29:07;;;;;;;9.90;4.78;;;;;;;15.51;76.97;99654.84;1776178;81;21751;-88
2021/07/23 02:32:13;;;;;;;17.07;3.80;;;;;;;15.69;76.83;99655.48;1776250;81;21718;-88
2021/07/23 02:35:19;;;;;;;11.18;4.40;;;;;;;15.93;76.26;99653.23;1776070;81;21806;-79
2021/07/23 02:38:24;;;;;;;11.45;3.75;;;;;;;16.20;74.97;99657.95;1777217;81;21839;-89
2021/07/23 02:41:31;;;;;;;15.48;4.40;;;;;;;16.45;73.73;99662.00;1776260;81;21352;-89
2021/07/23 02:44:37;;;;;;;12.58;4.60;;;;;;;16.70;72.54;99667.45;1775980;81;21216;-79
2021/07/23 02:47:42;;;;;;;10.38;4.47;;;;;;;16.96;71.16;99663.52;1777674;81;21324;-80
2021/07/23 02:50:47;;;;;;;18.92;5.17;;;;;;;17.21;70.14;99666.13;1776965;81;21308;-89
2021/07/23 02:53:54;;;;;;;11.78;4.78;;;;;;;17.51;69.13;99666.65;1777049;81;21264;-89
2021/07/23 02:57:00;;;;;;;25.02;4.95;;;;;;;17.81;67.74;99670.74;1776230;81;21328;-89
2021/07/23 03:00:07;;;;;;;11.25;4.83;;;;;;;18.08;66.49;99678.05;1777448;81;21289;-78
2021/07/23 03:03:13;;;;;;;16.40;4.65;;;;;;;18.35;65.46;99678.40;1777554;81;21851;-87
2021/07/23 03:06:20;;;;;;;12.35;4.50;;;;;;;18.58;64.76;99681.13;1785213;79;21212;-87
2021/07/23 03:09:30;;;;;;;9.70;4.90;;;;;;;18.80;63.46;99687.42;1802868;79;21299;-79
2021/07/23 03:12:34;;;;;;;14.75;5.12;;;;;;;18.87;62.93;99679.27;1803638;79;21798;-89
2021/07/23 03:15:40;;;;;;;13.40;4.75;;;;;;;18.93;62.76;99681.59;1802335;79;21863;-79
2021/07/23 03:18:47;;;;;;;10.90;5.15;;;;;;;19.02;62.54;99686.21;1803926;79;21271;-78
2021/07/23 03:21:56;;;;;;;8.68;4.33;;;;;;;19.11;62.18;99688.89;1802629;79;21183;-79
2021/07/23 03:25:03;;;;;;;9.08;4.92;;;;;;;19.19;61.90;99686.24;1802438;79;21244;-89
2021/07/23 03:28:18;;;;;;;13.00;5.22;;;;;;;19.33;61.50;99690.39;1780879;79;21211;-79
2021/07/23 03:31:28;;;;;;;10.58;4.40;;;;;;;19.49;61.19;99689.61;1802798;79;21306;-88
2021/07/23 03:34:32;;;;;;;10.80;4.45;;;;;;;19.74;60.61;99687.01;1803865;79;21267;-79
2021/07/23 03:37:26;;;;;;;13.85;4.65;;;;;;;19.94;59.84;99695.66;1803266;79;21141;-88
2021/07/23 03:40:35;;;;;;;13.75;4.65;;;;;;;20.11;59.09;99695.12;1803787;79;21818;-79
2021/07/23 03:43:40;;;;;;;7.97;4.53;;;;;;;20.23;58.52;99694.16;1803798;79;21133;-79
2021/07/23 03:46:52;;;;;;;9.18;4.25;;;;;;;20.26;58.31;99699.22;1803857;79;21323;-87
2021/07/23 03:49:50;;;;;;;11.35;4.67;;;;;;;20.30;58.36;99693.45;1803895;79;21153;-87
2021/07/23 03:52:59;;;;;;;14.00;4.30;;;;;;;20.33;58.29;99698.52;1749661;82;21279;-79
2021/07/23 03:56:14;;;;;;;7.78;4.05;;;;;;;20.38;58.60;99699.42;1729938;81;21338;-86
2021/07/23 03:59:21;;;;;;;12.88;4.42;;;;;;;20.39;58.28;99697.48;1720054;83;21291;-86
2021/07/23 04:02:27;;;;;;;8.53;4.30;;;;;;;20.37;58.40;99700.52;1719946;83;21184;-79
2021/07/23 04:05:32;;;;;;;9.03;4.00;;;;;;;20.37;58.35;99699.66;1718648;82;21330;-79
2021/07/23 04:08:39;;;;;;;7.20;4.35;;;;;;;20.30;58.26;99694.30;1718692;83;21931;-86
2021/07/23 04:11:50;;;;;;;11.97;3.80;;;;;;;20.17;58.64;99701.03;1718935;82;21327;-79
2021/07/23 04:14:58;;;;;;;9.28;3.50;;;;;;;20.09;59.36;99705.65;1719936;82;21290;-79
2021/07/23 04:18:21;;;;;;;8.05;3.58;;;;;;;20.06;59.19;99699.20;1720097;83;21702;-78
2021/07/23 04:21:28;;;;;;;11.95;3.92;;;;;;;20.02;59.99;99695.25;1705564;82;21279;-86
2021/07/23 04:24:37;;;;;;;8.93;3.52;;;;;;;20.02;59.89;99700.80;1718401;83;21307;-79
2021/07/23 04:27:42;;;;;;;6.28;3.37;;;;;;;20.01;59.98;99708.84;1718835;83;21327;-79
2021/07/23 04:30:52;;;;;;;12.47;3.20;;;;;;;20.06;60.28;99704.76;1719501;82;21212;-79
2021/07/23 04:34:07;;;;;;;10.08;2.95;;;;;;;20.13;60.07;99708.19;1718734;83;21164;-86
2021/07/23 04:37:29;;;;;;;12.50;2.77;;;;;;;20.20;59.50;99706.64;1718873;83;21753;-86
2021/07/23 04:40:40;;;;;;;10.43;3.15;;;;;;;20.22;59.02;99707.77;1707681;82;21302;-87
2021/07/23 04:43:47;;;;;;;11.70;2.80;;;;;;;20.25;59.44;99709.49;1718199;83;21220;-79
2021/07/23 04:46:54;;;;;;;7.45;2.90;;;;;;;20.35;59.36;99715.75;1718749;82;21283;-87
2021/07/23 04:50:01;;;;;;;12.58;3.08;;;;;;;20.45;58.81;99711.73;1720023;82;21180;-79
2021/07/23 04:53:19;;;;;;;7.08;2.92;;;;;;;20.52;58.72;99708.27;1665921;83;21383;-86
2021/07/23 04:56:28;;;;;;;7.70;3.07;;;;;;;20.62;58.61;99708.95;1692222;81;21243;-86
2021/07/23 04:59:36;;;;;;;11.83;3.33;;;;;;;20.66;57.70;99712.91;1737683;82;21291;-78
2021/07/23 05:02:44;;;;;;;12.28;2.98;;;;;;;20.76;57.80;99713.03;1733503;81;21342;-79
2021/07/23 05:05:50;;;;;;;8.83;3.00;;;;;;;20.89;57.84;99710.44;1735668;82;21278;-86
2021/07/23 05:08:56;;;;;;;8.75;3.22;;;;;;;20.92;57.88;99713.51;1753433;82;21149;-86
2021/07/23 05:12:03;;;;;;;5.53;3.27;;;;;;;20.94;57.22;99713.27;1695519;84;21326;-87
2021/07/23 05:15:08;;;;;;;8.35;3.00;;;;;;;20.94;57.54;99713.27;1692027;84;21853;-79
2021/07/23 05:18:15;;;;;;;7.53;2.67;;;;;;;21.01;57.54;99718.07;1728399;83;21278;-78
2021/07/23 05:21:20;;;;;;;4.60;2.17;;;;;;;21.17;57.12;99725.52;1680027;84;21317;-87
2021/07/23 05:24:26;;;;;;;7.92;2.80;;;;;;;21.24;55.83;99721.13;1734689;82;21247;-78
2021/07/23 05:27:32;;;;;;;7.37;2.87;;;;;;;21.32;55.50;99721.26;1705305;83;21166;-79
2021/07/23 05:30:37;;;;;;;9.78;2.52;;;;;;;21.40;55.38;99721.61;1737701;80;21172;-86
2021/07/23 05:33:43;;;;;;;12.50;2.83;;;;;;;21.49;55.93;99721.98;1742415;82;21264;-78
2021/07/23 05:36:48;;;;;;;9.50;2.75;;;;;;;21.62;54.65;99728.52;1743443;80;21994;-87
2021/07/23 05:39:54;;;;;;;11.93;2.80;;;;;;;21.67;53.75;99728.57;1726889;83;21303;-85
2021/07/23 05:43:00;;;;;;;5.45;3.10;;;;;;;21.75;53.53;99723.64;1714237;83;21283;-83
2021/07/23 05:46:06;;;;;;;9.83;3.35;;;;;;;21.81;54.80;99723.97;1708297;83;21350;-79
2021/07/23 05:49:12;;;;;;;10.45;2.83;;;;;;;21.92;55.60;99725.73;1732967;82;21307;-85
2021/07/23 05:52:18;;;;;;;6.28;2.87;;;;;;;22.07;55.03;99726.44;1722137;82;21336;-86
2021/07/23 05:55:23;;;;;;;8.88;2.60;;;;;;;22.19;54.43;99729.33;1696647;83;21207;-86
2021/07/23 05:58:29;;;;;;;9.33;3.08;;;;;;;22.30;53.26;99732.19;1696594;83;21764;-86
2021/07/23 06:01:35;;;;;;;5.58;2.55;;;;;;;22.40;51.91;99734.52;1696376;83;21368;-78
2021/07/23 06:04:41;;;;;;;11.97;3.40;;;;;;;22.46;51.13;99728.42;1685375;85;22249;-77
2021/07/23 06:07:47;;;;;;;6.60;3.30;;;;;;;22.52;52.05;99735.70;1687071;85;21315;-77
2021/07/23 06:10:53;;;;;;;6.37;3.00;;;;;;;22.54;52.15;99750.22;1686768;83;21331;-79
2021/07/23 06:14:00;;;;;;;10.43;3.77;;;;;;;22.50;51.40;99743.50;1686422;85;21295;-79
2021/07/23 06:17:05;;;;;;;10.13;4.00;;;;;;;22.45;52.18;99742.07;1683886;84;21730;-79
2021/07/23 06:20:12;;;;;;;7.75;3.20;;;;;;;22.42;51.30;99749.56;1686214;84;21231;-80
2021/07/23 06:23:18;;;;;;;8.30;3.20;;;;;;;22.41;51.42;99745.11;1688819;85;21930;-79
2021/07/23 06:26:24;;;;;;;12.10;3.60;;;;;;;22.39;51.24;99740.34;1686185;83;21245;-86
2021/07/23 06:29:29;;;;;;;11.85;3.42;;;;;;;22.41;52.76;99742.31;1686413;85;21283;-78
2021/07/23 06:32:37;;;;;;;13.03;3.65;;;;;;;22.50;53.05;99749.07;1687497;85;21286;-85
2021/07/23 06:35:41;;;;;;;10.90;3.58;;;;;;;22.59;51.20;99744.67;1687331;84;21346;-84
2021/07/23 06:38:46;;;;;;;11.63;3.52;;;;;;;22.66;51.12;99746.66;1688768;84;21208;-79
2021/07/23 06:41:52;;;;;;;7.83;2.95;;;;;;;22.68;49.72;99752.81;1686168;84;21326;-86
2021/07/23 06:44:59;;;;;;;11.40;3.35;;;;;;;22.66;50.62;99752.23;1687659;83;21706;-85
2021/07/23 06:48:04;;;;;;;5.95;3.12;;;;;;;22.69;51.43;99748.08;1659842;86;21279;-78
2021/07/23 06:51:11;;;;;;;12.07;2.50;;;;;;;22.73;51.92;99751.17;1662513;85;21330;-85
2021/07/23 06:54:17;;;;;;;14.65;3.00;;;;;;;22.80;52.61;99747.57;1689959;84;21272;-78
2021/07/23 06:57:24;;;;;;;7.05;2.70;;;;;;;22.88;52.65;99750.69;1706620;84;21731;-82
2021/07/23 07:00:29;;;;;;;11.05;2.42;;;;;;;22.87;50.15;99744.83;1718154;82;21842;-78
2021/07/23 07:03:36;;;;;;;4.33;2.33;;;;;;;22.90;50.53;99760.20;1718141;83;21277;-85
2021/07/23 07:06:34;;;;;;;6.12;2.33;;;;;;;22.91;48.55;99751.58;1717330;82;21223;-79
2021/07/23 07:09:42;;;;;;;5.90;2.30;;;;;;;22.98;48.80;99749.93;1716933;82;21731;-78
2021/07/23 07:12:47;;;;;;;4.28;1.90;;;;;;;23.09;49.71;99753.04;1718276;83;21301;-86
2021/07/23 07:15:54;;;;;;;16.02;2.55;;;;;;;23.15;47.48;99754.76;1716808;82;21178;-78
2021/07/23 07:18:59;;;;;;;6.53;1.70;;;;;;;23.23;49.19;99753.38;1725323;82;21212;-78
2021/07/23 07:22:05;;;;;;;5.30;2.17;;;;;;;23.35;48.44;99758.73;1685390;85;21326;-78
2021/07/23 07:25:12;;;;;;;6.80;1.80;;;;;;;23.43;46.70;99763.23;1710931;82;21224;-86
2021/07/23 07:28:17;;;;;;;6.83;1.95;;;;;;;23.52;46.63;99763.52;1690527;84;21530;-86
2021/07/23 07:31:24;;;;;;;3.15;1.87;;;;;;;23.63;45.87;99764.40;1717867;82;21219;-79
2021/07/23 07:34:34;;;;;;;6.12;2.52;;;;;;;23.67;45.47;99768.36;1718081;83;21334;-86
2021/07/23 07:37:37;;;;;;;6.58;1.80;;;;;;;23.69;46.02;99766.95;1718722;83;21197;-79
2021/07/23 07:40:42;;;;;;;6.22;1.90;;;;;;;23.77;45.89;99766.14;1717415;83;21324;-85
2021/07/23 07:43:50;;;;;;;9.85;1.90;;;;;;;23.82;46.21;99772.56;1718770;83;21825;-78
2021/07/23 07:46:54;;;;;;;5.87;2.10;;;;;;;23.84;43.70;99773.67;1686711;85;21359;-86
2021/07/23 07:50:00;;;;;;;9.30;1.40;;;;;;;23.86;44.63;99774.25;1685824;85;21392;-86
2021/07/23 07:53:06;;;;;;;4.70;1.67;;;;;;;23.86;45.39;99779.28;1710257;83;21793;-85
2021/07/23 07:56:16;;;;;;;2.85;1.30;;;;;;;23.79;45.26;99775.06;1716489;83;21327;-85
2021/07/23 07:59:22;;;;;;;5.45;1.42;;;;;;;23.76;43.71;99772.28;1672329;84;21281;-86
2021/07/23 08:02:27;;;;;;;2.15;1.40;;;;;;;23.79;45.20;99782.05;1671703;84;21568;-79
2021/07/23 08:05:33;;;;;;;5.40;1.50;;;;;;;23.81;45.37;99786.81;1664438;86;21330;-86
2021/07/23 08:08:37;;;;;;;5.60;1.32;;;;;;;23.75;44.67;99782.31;1694081;84;21272;-86
2021/07/23 08:11:45;;;;;;;4.80;1.45;;;;;;;23.76;45.55;99783.98;1706023;84;21184;-79
2021/07/23 08:14:49;;;;;;;1.80;1.15;;;;;;;23.75;45.91;99785.10;1706409;84;21773;-86
2021/07/23 08:17:54;;;;;;;7.97;1.27;;;;;;;23.71;44.33;99778.70;1684609;84;21337;-86
2021/07/23 08:20:59;;;;;;;3.67;1.25;;;;;;;23.65;43.88;99789.55;1704570;84;21203;-86
2021/07/23 08:24:08;;;;;;;3.90;1.07;;;;;;;23.69;44.11;99786.48;1705979;84;21518;-79
2021/07/23 08:27:15;;;;;;;1.72;0.98;;;;;;;23.77;42.95;99794.06;1690801;83;22075;-80
2021/07/23 08:30:20;;;;;;;2.62;0.98;;;;;;;23.80;41.40;99788.73;1698169;83;21311;-86
2021/07/23 08:33:25;;;;;;;2.35;1.00;;;;;;;23.84;41.24;99787.64;1693365;84;21189;-79
2021/07/23 08:36:32;;;;;;;4.65;0.93;;;;;;;23.84;40.29;99791.83;1684563;84;21288;-86
2021/07/23 08:39:38;;;;;;;3.52;1.27;;;;;;;23.81;40.87;99793.23;1706182;84;21181;-86
2021/07/23 08:42:43;;;;;;;6.70;1.32;;;;;;;23.81;41.92;99791.00;1706371;84;21331;-86
2021/07/23 08:45:49;;;;;;;2.50;1.20;;;;;;;23.77;41.85;99794.89;1706295;84;21853;-78
2021/07/23 08:48:53;;;;;;;2.05;1.32;;;;;;;23.73;42.29;99788.74;1693773;83;21877;-80
2021/07/23 08:52:00;;;;;;;12.85;1.40;;;;;;;23.73;42.72;99799.91;1704987;84;21311;-86
2021/07/23 08:55:06;;;;;;;6.97;1.32;;;;;;;23.69;42.47;99788.45;1700877;83;21275;-86
2021/07/23 08:58:16;;;;;;;4.20;1.20;;;;;;;23.67;42.26;99792.92;1715010;83;21346;-79
2021/07/23 09:01:20;;;;;;;4.92;1.20;;;;;;;23.73;43.16;99792.93;1717373;83;21529;-87
2021/07/23 09:04:38;;;;;;;3.42;1.17;;;;;;;23.81;42.67;99790.44;1725276;83;21848;-79
2021/07/23 09:07:44;;;;;;;1.85;1.12;;;;;;;23.84;42.72;99805.23;1708223;83;21185;-79
2021/07/23 09:10:48;;;;;;;8.00;1.57;;;;;;;23.84;43.39;99799.64;1722715;82;21891;-85
2021/07/23 09:13:53;;;;;;;5.03;1.25;;;;;;;23.84;43.81;99793.22;1743768;82;21291;-86
2021/07/23 09:17:02;;;;;;;7.47;1.27;;;;;;;23.86;42.25;99788.22;1741975;81;21256;-79
2021/07/23 09:20:10;;;;;;;6.90;1.30;;;;;;;23.84;43.09;99788.47;1743489;81;21334;-79
2021/07/23 09:23:16;;;;;;;7.58;1.25;;;;;;;23.86;44.07;99786.82;1719227;82;21291;-79
2021/07/23 09:26:26;;;;;;;1.57;1.15;;;;;;;23.92;45.07;99787.10;1719645;81;21304;-78
2021/07/23 09:29:31;;;;;;;3.05;1.25;;;;;;;23.98;44.71;99790.17;1726084;83;21272;-86
2021/07/23 09:32:37;;;;;;;4.28;1.37;;;;;;;23.95;44.18;99783.77;1725619;83;21193;-86
2021/07/23 09:35:43;;;;;;;2.40;1.20;;;;;;;23.90;42.20;99780.94;1686589;85;21332;-79
2021/07/23 09:38:53;;;;;;;5.55;1.22;;;;;;;23.91;43.94;99786.27;1718472;83;21193;-79
2021/07/23 09:42:07;;;;;;;5.33;1.50;;;;;;;23.91;42.86;99792.41;1720947;82;21287;-86
2021/07/23 09:45:14;;;;;;;2.45;1.40;;;;;;;23.89;41.51;99777.30;1723046;82;21366;-79
2021/07/23 09:48:22;;;;;;;4.33;1.40;;;;;;;23.88;43.15;99784.58;1719007;82;21841;-86
2021/07/23 09:51:27;;;;;;;5.97;1.50;;;;;;;23.92;44.36;99773.14;1657003;85;21891;-77
2021/07/23 09:54:34;;;;;;;2.65;1.10;;;;;;;24.02;43.52;99772.30;1681148;85;21295;-85
2021/07/23 09:57:39;;;;;;;2.87;1.00;;;;;;;24.13;44.05;99774.81;1701773;83;21323;-77
2021/07/23 10:00:47;;;;;;;2.05;0.93;;;;;;;24.19;42.14;99774.28;1717519;83;21283;-86
2021/07/23 10:03:58;;;;;;;4.95;1.35;;;;;;;24.15;42.95;99778.75;1690934;84;21303;-85
2021/07/23 10:07:32;;;;;;;2.65;1.00;;;;;;;24.13;41.08;99784.59;1710153;83;21193;-86
2021/07/23 10:10:38;;;;;;;3.00;0.90;;;;;;;24.13;40.54;99773.98;1656540;86;21887;-78
2021/07/23 10:13:46;;;;;;;3.95;1.07;;;;;;;24.08;41.01;99779.00;1724385;83;21145;-79
2021/07/23 10:16:52;;;;;;;2.35;1.37;;;;;;;24.11;41.94;99773.43;1714276;83;21250;-79
2021/07/23 10:19:59;;;;;;;4.85;1.00;;;;;;;24.15;42.21;99779.58;1716153;82;21855;-79
2021/07/23 10:23:05;;;;;;;4.42;1.10;;;;;;;24.20;41.98;99777.34;1711277;83;21281;-84
2021/07/23 10:26:10;;;;;;;12.90;1.40;;;;;;;24.26;42.44;99778.18;1716568;83;21210;-87
2021/07/23 10:29:20;;;;;;;3.72;1.20;;;;;;;24.26;42.73;99779.58;1716524;83;21178;-87
2021/07/23 10:32:38;;;;;;;1.67;0.90;;;;;;;24.31;41.20;99775.38;1716686;83;21328;-78
2021/07/23 10:35:43;;;;;;;6.33;1.10;;;;;;;24.31;40.79;99767.00;1687668;83;21204;-79
2021/07/23 10:38:48;;;;;;;2.40;1.10;;;;;;;24.26;40.25;99767.00;1687862;85;21285;-87
2021/07/23 10:41:57;;;;;;;7.20;1.02;;;;;;;24.19;39.06;99780.70;1692818;83;21902;-79
2021/07/23 10:45:03;;;;;;;2.00;1.00;;;;;;;24.15;40.30;99783.77;1709366;83;21318;-79
2021/07/23 10:48:08;;;;;;;1.65;0.98;;;;;;;24.13;39.84;99772.58;1713733;83;21312;-78
2021/07/23 10:51:14;;;;;;;1.98;0.98;;;;;;;24.10;40.01;99774.55;1714675;83;21340;-78
2021/07/23 10:54:19;;;;;;;3.25;0.90;;;;;;;24.06;40.69;99768.68;1716128;83;21183;-81
2021/07/23 10:57:25;;;;;;;5.25;1.20;;;;;;;24.09;41.00;99770.92;1693810;84;21828;-80
2021/07/23 11:00:31;;;;;;;5.78;1.00;;;;;;;24.13;40.58;99770.63;1717333;83;21298;-78
2021/07/23 11:03:58;;;;;;;1.27;0.90;;;;;;;24.16;41.41;99765.05;1699553;84;21166;-86
2021/07/23 11:06:57;;;;;;;3.08;1.10;;;;;;;24.18;40.22;99767.86;1723430;82;21824;-87
2021/07/23 11:10:03;;;;;;;2.58;1.10;;;;;;;24.19;41.04;99768.13;1698882;84;21364;-88
2021/07/23 11:13:13;;;;;;;3.60;0.90;;;;;;;24.21;39.07;99756.10;1726439;82;21275;-87
2021/07/23 11:16:29;;;;;;;8.60;1.07;;;;;;;24.19;41.18;99756.95;1705296;83;21186;-79
2021/07/23 11:19:35;;;;;;;4.03;0.93;;;;;;;24.17;40.48;99759.17;1721197;83;21306;-79
2021/07/23 11:22:41;;;;;;;6.30;1.05;;;;;;;24.15;38.49;99755.00;1729574;82;21334;-78
2021/07/23 11:25:46;;;;;;;6.30;1.10;;;;;;;24.12;39.02;99773.70;1718922;81;21178;-87
2021/07/23 11:28:59;;;;;;;4.62;1.00;;;;;;;24.09;39.69;99765.34;1720836;83;21268;-86
2021/07/23 11:32:13;;;;;;;7.70;1.07;;;;;;;24.09;40.43;99756.09;1720026;82;21300;-78
2021/07/23 11:35:18;;;;;;;5.28;1.00;;;;;;;24.10;41.02;99766.17;1721660;83;21336;-79
2021/07/23 11:38:24;;;;;;;3.52;0.85;;;;;;;24.09;40.86;99759.75;1721508;83;21330;-87
2021/07/23 11:41:28;;;;;;;2.05;0.80;;;;;;;24.09;39.84;99744.39;1721568;83;21322;-87
2021/07/23 11:44:33;;;;;;;5.70;1.12;;;;;;;24.13;39.81;99752.46;1722088;83;21204;-87
2021/07/23 11:47:53;;;;;;;2.92;1.00;;;;;;;24.13;39.82;99750.23;1721718;83;21242;-87
2021/07/23 11:51:02;;;;;;;6.08;0.93;;;;;;;24.12;39.50;99748.00;1719689;82;21218;-87
2021/07/23 11:54:07;;;;;;;3.50;1.00;;;;;;;24.14;40.02;99751.37;1708577;84;21314;-87
2021/07/23 11:57:13;;;;;;;11.25;1.07;;;;;;;24.18;39.53;99739.92;1714322;82;21591;-79
2021/07/23 12:00:31;;;;;;;3.02;1.07;;;;;;;24.20;39.49;99744.66;1710589;83;21262;-87
2021/07/23 12:03:39;;;;;;;3.70;0.85;;;;;;;24.20;39.94;99747.45;1700084;84;21155;-78
2021/07/23 12:06:44;;;;;;;5.00;1.00;;;;;;;24.19;38.51;99742.15;1702286;83;21900;-87
2021/07/23 12:09:49;;;;;;;6.58;1.00;;;;;;;24.17;39.53;99741.58;1687811;83;21819;-78
2021/07/23 12:12:56;;;;;;;7.10;0.90;;;;;;;24.17;39.82;99740.17;1700098;84;21792;-79
2021/07/23 12:16:03;;;;;;;1.82;1.00;;;;;;;24.15;39.06;99736.84;1699918;83;22144;-87
2021/07/23 12:19:09;;;;;;;6.92;0.98;;;;;;;24.14;39.30;99733.21;1706863;84;21285;-88
2021/07/23 12:22:18;;;;;;;3.08;0.98;;;;;;;24.12;38.94;99737.39;1718334;83;21327;-79
2021/07/23 12:25:27;;;;;;;1.45;1.00;;;;;;;24.09;39.63;99733.74;1725155;83;21574;-87
2021/07/23 12:28:31;;;;;;;9.93;1.60;;;;;;;24.05;39.67;99733.48;1718560;83;21262;-79
2021/07/23 12:31:40;;;;;;;2.20;0.90;;;;;;;24.05;40.61;99733.48;1689690;83;21307;-79
2021/07/23 12:34:45;;;;;;;4.75;1.02;;;;;;;24.13;40.55;99727.31;1713564;82;21291;-79
2021/07/23 12:37:51;;;;;;;3.75;1.25;;;;;;;24.20;39.39;99734.87;1715964;82;21164;-77
2021/07/23 12:40:59;;;;;;;3.87;1.20;;;;;;;24.20;37.88;99723.70;1711252;82;21322;-87
2021/07/23 12:44:20;;;;;;;1.10;0.70;;;;;;;24.18;39.18;99723.16;1685572;85;21260;-87
2021/07/23 12:47:26;;;;;;;2.50;0.93;;;;;;;24.19;38.67;99730.41;1721597;82;21168;-87
2021/07/23 12:50:32;;;;;;;1.60;0.80;;;;;;;24.17;39.27;99724.25;1725346;82;21848;-87
2021/07/23 12:53:39;;;;;;;2.30;0.90;;;;;;;24.17;39.23;99721.45;1682148;84;21304;-78
2021/07/23 12:56:44;;;;;;;1.55;0.70;;;;;;;24.16;38.13;99722.58;1717758;82;21196;-87
2021/07/23 12:59:50;;;;;;;5.75;1.30;;;;;;;24.18;38.90;99721.76;1689976;84;21260;-78
2021/07/23 13:02:59;;;;;;;3.72;0.90;;;;;;;24.18;39.16;99727.34;1720309;83;21732;-78
2021/07/23 13:06:02;;;;;;;5.67;1.10;;;;;;;24.16;38.58;99715.59;1704577;83;21532;-77
2021/07/23 13:09:07;;;;;;;5.60;0.93;;;;;;;24.18;39.71;99720.89;1704813;83;21319;-87
2021/07/23 13:12:13;;;;;;;5.00;1.00;;;;;;;24.19;39.16;99719.23;1701367;83;21743;-78
2021/07/23 13:15:20;;;;;;;8.93;1.20;;;;;;;24.16;39.24;99717.55;1709353;83;21307;-78
2021/07/23 13:18:26;;;;;;;2.75;1.20;;;;;;;24.14;38.94;99719.80;1703487;83;21276;-87
2021/07/23 13:21:31;;;;;;;6.72;1.37;;;;;;;24.14;37.01;99713.66;1664675;85;21276;-79
2021/07/23 13:24:38;;;;;;;2.27;1.20;;;;;;;24.12;38.40;99728.44;1681832;85;21301;-88
2021/07/23 13:27:43;;;;;;;2.67;0.93;;;;;;;24.09;37.51;99729.02;1682059;85;21295;-88
2021/07/23 13:30:49;;;;;;;3.80;1.05;;;;;;;24.02;37.80;99721.47;1681163;85;21224;-88
2021/07/23 13:33:54;;;;;;;9.78;1.30;;;;;;;23.98;37.87;99719.78;1683877;85;21838;-87
2021/07/23 13:37:17;;;;;;;3.72;1.20;;;;;;;23.98;38.30;99718.95;1683100;85;22315;-87
2021/07/23 13:40:22;;;;;;;4.53;1.60;;;;;;;24.00;38.55;99714.50;1681280;85;21233;-88
2021/07/23 13:43:29;;;;;;;3.55;1.15;;;;;;;24.01;39.30;99716.17;1680863;85;21287;-88
2021/07/23 13:46:35;;;;;;;1.80;0.82;;;;;;;24.01;39.40;99712.81;1661564;86;21331;-79
2021/07/23 13:49:41;;;;;;;8.30;1.15;;;;;;;24.01;39.53;99712.81;1639131;87;21271;-88
2021/07/23 13:52:48;;;;;;;5.60;1.10;;;;;;;24.03;39.83;99724.53;1677448;85;21347;-78
2021/07/23 13:55:53;;;;;;;5.00;1.30;;;;;;;24.05;40.18;99721.48;1681175;85;21347;-87
2021/07/23 13:58:58;;;;;;;2.05;1.05;;;;;;;24.03;39.82;99711.96;1682088;85;21297;-78
2021/07/23 14:02:04;;;;;;;2.45;1.02;;;;;;;24.02;39.75;99703.87;1682972;84;21821;-87
2021/07/23 14:05:08;;;;;;;3.72;1.32;;;;;;;24.00;40.25;99713.94;1700193;83;21322;-88
2021/07/23 14:08:15;;;;;;;4.22;1.42;;;;;;;23.97;39.90;99720.07;1719310;83;21180;-88
2021/07/23 14:11:21;;;;;;;2.45;1.00;;;;;;;23.93;39.38;99718.95;1718535;83;21746;-88
2021/07/23 14:14:27;;;;;;;2.92;1.27;;;;;;;23.88;40.03;99711.97;1719113;83;21311;-78
2021/07/23 14:17:32;;;;;;;4.47;1.20;;;;;;;23.84;39.23;99711.68;1719333;83;21887;-87
2021/07/23 14:20:37;;;;;;;3.17;1.47;;;;;;;23.85;40.76;99715.30;1717469;83;21848;-87
2021/07/23 14:23:42;;;;;;;3.85;1.10;;;;;;;23.87;40.64;99706.94;1717527;83;21341;-78
2021/07/23 14:26:47;;;;;;;5.60;1.10;;;;;;;23.88;40.65;99722.58;1717557;83;21742;-78
2021/07/23 14:29:53;;;;;;;2.37;1.07;;;;;;;23.87;40.61;99727.05;1718903;83;21282;-88
2021/07/23 14:32:59;;;;;;;7.30;1.50;;;;;;;23.85;41.68;99715.30;1718870;83;21276;-78
2021/07/23 14:36:04;;;;;;;2.52;1.40;;;;;;;23.89;42.92;99722.02;1718194;83;21232;-78
2021/07/23 14:39:11;;;;;;;2.80;1.10;;;;;;;23.92;42.90;99717.28;1717187;81;21196;-87